createdAt,value
2018-12-21T00:00:05.455Z,100624.88
2018-12-21T00:02:34.450Z,100629.22
2018-12-21T00:05:03.410Z,100625.62
2018-12-21T00:07:32.331Z,100619.08
2018-12-21T00:10:01.294Z,100620.25
2018-12-21T00:12:30.223Z,100619.82
2018-12-21T00:14:59.106Z,100616.91
2018-12-21T00:17:34.560Z,100618.45
2018-12-21T00:19:59.058Z,100613.28
2018-12-21T00:22:28.003Z,100611.06
2018-12-21T00:24:56.960Z,100607.80
2018-12-21T00:27:25.885Z,100608.77
2018-12-21T00:29:54.862Z,100610.93
2018-12-21T00:32:29.131Z,100601.23
2018-12-21T00:35:03.391Z,100604.95
2018-12-21T00:37:37.657Z,100598.84
2018-12-21T00:40:12.199Z,100600.11
2018-12-21T00:42:48.350Z,100589.65
2018-12-21T00:45:21.490Z,100588.55
2018-12-21T00:47:50.545Z,100578.52
2018-12-21T00:50:19.451Z,100578.30
2018-12-21T00:52:48.433Z,100577.55
2018-12-21T00:55:17.475Z,100581.25
2018-12-21T00:57:46.486Z,100577.11
2018-12-21T01:00:17.702Z,100584.46
2018-12-21T01:02:46.687Z,100576.30
2018-12-21T01:05:15.662Z,100581.63
2018-12-21T01:07:44.650Z,100574.59
2018-12-21T01:10:14.855Z,100578.17
2018-12-21T01:12:44.274Z,100575.71
2018-12-21T01:15:13.316Z,100578.13
2018-12-21T01:17:42.487Z,100585.02
2018-12-21T01:20:11.638Z,100585.80
2018-12-21T01:22:40.553Z,100583.19
2018-12-21T01:25:09.481Z,100579.86
2018-12-21T01:27:38.543Z,100585.34
2018-12-21T01:30:08.021Z,100584.17
2018-12-21T01:32:37.116Z,100580.84
2018-12-21T01:35:06.110Z,100575.77
2018-12-21T01:37:35.137Z,100587.93
2018-12-21T01:40:05.039Z,100579.78
2018-12-21T01:42:34.136Z,100576.53
2018-12-21T01:45:03.084Z,100581.04
2018-12-21T01:47:32.300Z,100585.35
2018-12-21T01:50:01.318Z,100578.73
2018-12-21T01:52:30.378Z,100574.38
2018-12-21T01:54:59.357Z,100570.38
2018-12-21T01:57:28.617Z,100576.05
2018-12-21T01:59:57.545Z,100568.28
2018-12-21T02:02:26.466Z,100574.19
2018-12-21T02:04:55.413Z,100565.05
2018-12-21T02:07:24.594Z,100550.40
2018-12-21T02:09:53.549Z,100542.98
2018-12-21T02:12:22.570Z,100544.63
2018-12-21T02:14:51.534Z,100535.56
2018-12-21T02:17:20.428Z,100533.23
2018-12-21T02:19:49.428Z,100534.27
2018-12-21T02:22:18.392Z,100543.05
2018-12-21T02:24:47.384Z,100541.95
2018-12-21T02:27:16.486Z,100549.06
2018-12-21T02:29:45.436Z,100540.30
2018-12-21T02:32:14.419Z,100535.20
2018-12-21T02:34:43.453Z,100536.31
2018-12-21T02:37:12.346Z,100541.34
2018-12-21T02:39:41.297Z,100538.75
2018-12-21T02:42:10.272Z,100539.91
2018-12-21T02:44:39.168Z,100535.09
2018-12-21T02:47:08.169Z,100535.05
2018-12-21T02:49:37.107Z,100538.37
2018-12-21T02:52:06.304Z,100528.45
2018-12-21T02:54:35.218Z,100528.88
2018-12-21T02:57:04.243Z,100529.70
2018-12-21T02:59:33.214Z,100525.31
2018-12-21T03:02:02.112Z,100530.72
2018-12-21T03:04:31.038Z,100527.31
2018-12-21T03:07:00.001Z,100523.30
2018-12-21T03:09:28.925Z,100529.91
2018-12-21T03:11:57.881Z,100529.97
2018-12-21T03:14:26.760Z,100523.45
2018-12-21T03:16:55.713Z,100518.80
2018-12-21T03:19:24.933Z,100511.67
2018-12-21T03:21:53.918Z,100511.52
2018-12-21T03:24:23.177Z,100513.44
2018-12-21T03:26:52.144Z,100510.19
2018-12-21T03:29:21.070Z,100501.66
2018-12-21T03:31:50.028Z,100495.34
2018-12-21T03:34:19.085Z,100498.59
2018-12-21T03:36:48.071Z,100494.28
2018-12-21T03:39:17.080Z,100486.08
2018-12-21T03:41:46.011Z,100483.03
2018-12-21T03:44:14.988Z,100480.93
2018-12-21T03:46:43.901Z,100475.74
2018-12-21T03:49:12.803Z,100471.92
2018-12-21T03:51:41.748Z,100460.09
2018-12-21T03:54:10.761Z,100460.16
2018-12-21T03:56:39.679Z,100457.94
2018-12-21T03:59:08.857Z,100451.36
2018-12-21T04:01:37.867Z,100447.49
2018-12-21T04:04:06.784Z,100443.43
2018-12-21T04:06:35.769Z,100433.40
2018-12-21T04:09:06.525Z,100435.41
2018-12-21T04:11:35.502Z,100431.76
2018-12-21T04:14:04.510Z,100425.93
2018-12-21T04:16:33.400Z,100433.94
2018-12-21T04:19:02.445Z,100430.07
2018-12-21T04:21:31.432Z,100427.02
2018-12-21T04:24:00.432Z,100420.87
2018-12-21T04:26:29.336Z,100417.59
2018-12-21T04:28:58.340Z,100419.91
2018-12-21T04:31:27.249Z,100419.33
2018-12-21T04:33:56.173Z,100418.66
2018-12-21T04:36:25.133Z,100422.41
2018-12-21T04:38:54.062Z,100420.05
2018-12-21T04:41:22.988Z,100418.52
2018-12-21T04:43:52.110Z,100416.27
2018-12-21T04:46:21.073Z,100409.31
2018-12-21T04:48:50.001Z,100411.89
2018-12-21T04:51:18.939Z,100403.53
2018-12-21T04:53:47.895Z,100399.97
2018-12-21T04:56:16.812Z,100402.92
2018-12-21T04:58:45.753Z,100403.89
2018-12-21T05:01:14.666Z,100404.41
2018-12-21T05:03:43.642Z,100398.48
2018-12-21T05:06:12.599Z,100388.78
2018-12-21T05:08:41.559Z,100388.10
2018-12-21T05:11:10.496Z,100386.77
2018-12-21T05:13:39.670Z,100382.33
2018-12-21T05:16:08.695Z,100384.31
2018-12-21T05:18:37.610Z,100373.64
2018-12-21T05:21:06.581Z,100370.75
2018-12-21T05:23:35.475Z,100375.87
2018-12-21T05:26:04.463Z,100370.89
2018-12-21T05:28:33.379Z,100368.78
2018-12-21T05:31:02.303Z,100357.06
2018-12-21T05:33:31.267Z,100357.09
2018-12-21T05:36:00.244Z,100358.72
2018-12-21T05:38:29.146Z,100365.00
2018-12-21T05:40:58.041Z,100358.25
2018-12-21T05:43:27.041Z,100354.92
2018-12-21T05:45:56.116Z,100348.55
2018-12-21T05:48:25.102Z,100352.83
2018-12-21T05:50:54.279Z,100335.41
2018-12-21T05:53:23.282Z,100332.58
2018-12-21T05:55:52.224Z,100325.97
2018-12-21T05:58:21.173Z,100318.72
2018-12-21T06:00:50.140Z,100324.34
2018-12-21T06:03:19.738Z,100314.04
2018-12-21T06:05:48.699Z,100311.02
2018-12-21T06:08:17.615Z,100297.44
2018-12-21T06:10:46.587Z,100288.31
2018-12-21T06:13:15.553Z,100288.47
2018-12-21T06:15:44.512Z,100286.17
2018-12-21T06:18:13.429Z,100275.75
2018-12-21T06:20:42.426Z,100270.63
2018-12-21T06:23:11.333Z,100269.45
2018-12-21T06:25:40.647Z,100268.80
2018-12-21T06:28:09.577Z,100270.50
2018-12-21T06:30:38.534Z,100255.67
2018-12-21T06:33:07.654Z,100250.84
2018-12-21T06:35:36.543Z,100253.30
2018-12-21T06:38:05.475Z,100249.33
2018-12-21T06:40:34.482Z,100243.97
2018-12-21T06:43:03.384Z,100243.80
2018-12-21T06:45:32.722Z,100240.86
2018-12-21T06:48:01.702Z,100238.92
2018-12-21T06:50:30.624Z,100238.41
2018-12-21T06:52:59.619Z,100244.31
2018-12-21T06:55:28.615Z,100238.68
2018-12-21T06:57:57.652Z,100241.70
2018-12-21T07:00:29.730Z,100240.66
2018-12-21T07:02:58.801Z,100230.80
2018-12-21T07:05:27.973Z,100233.09
2018-12-21T07:07:56.922Z,100230.87
2018-12-21T07:10:25.983Z,100223.55
2018-12-21T07:12:54.961Z,100209.16
2018-12-21T07:15:23.972Z,100206.94
2018-12-21T07:17:52.945Z,100200.64
2018-12-21T07:20:21.911Z,100190.38
2018-12-21T07:22:50.944Z,100189.39
2018-12-21T07:25:19.877Z,100185.83
2018-12-21T07:27:48.876Z,100168.66
2018-12-21T07:30:20.844Z,100166.80
2018-12-21T07:32:49.820Z,100165.20
2018-12-21T07:35:19.222Z,100163.09
2018-12-21T07:37:48.148Z,100150.47
2018-12-21T07:40:17.044Z,100145.87
2018-12-21T07:42:46.131Z,100137.62
2018-12-21T07:45:15.097Z,100135.19
2018-12-21T07:47:44.060Z,100129.77
2018-12-21T07:50:13.080Z,100128.61
2018-12-21T07:52:42.878Z,100118.94
2018-12-21T07:55:12.040Z,100117.77
2018-12-21T07:57:48.279Z,100123.82
2018-12-21T08:00:17.271Z,100114.36
2018-12-21T08:02:46.221Z,100117.42
2018-12-21T08:05:15.175Z,100111.27
2018-12-21T08:07:44.136Z,100108.64
2018-12-21T08:10:16.791Z,100114.13
2018-12-21T08:12:45.747Z,100105.97
2018-12-21T08:15:14.911Z,100110.17
2018-12-21T08:17:43.814Z,100110.41
2018-12-21T08:20:12.741Z,100102.91
2018-12-21T08:22:41.685Z,100103.95
2018-12-21T08:25:10.719Z,100097.28
2018-12-21T08:27:39.664Z,100090.26
2018-12-21T08:30:09.987Z,100085.89
2018-12-21T08:32:38.944Z,100084.38
2018-12-21T08:35:07.886Z,100088.11
2018-12-21T08:37:36.888Z,100076.73
2018-12-21T08:40:08.014Z,100076.20
2018-12-21T08:42:36.956Z,100079.61
2018-12-21T08:45:08.583Z,100074.53
2018-12-21T08:47:37.544Z,100062.62
2018-12-21T08:50:09.975Z,100062.85
2018-12-21T08:52:38.910Z,100050.72
2018-12-21T08:55:07.964Z,100045.55
2018-12-21T08:57:36.898Z,100048.73
2018-12-21T09:00:08.700Z,100038.93
2018-12-21T09:02:37.629Z,100031.69
2018-12-21T09:05:07.361Z,100021.80
2018-12-21T09:07:37.367Z,100019.77
2018-12-21T09:10:08.896Z,100010.43
2018-12-21T09:12:37.967Z,100007.22
2018-12-21T09:15:10.247Z,100010.17
2018-12-21T09:17:39.209Z,99998.09
2018-12-21T09:20:10.084Z,99990.19
2018-12-21T09:22:39.075Z,99977.20
2018-12-21T09:25:08.076Z,99978.89
2018-12-21T09:27:37.026Z,99970.21
2018-12-21T09:30:09.944Z,99965.08
2018-12-21T09:32:38.967Z,99961.73
2018-12-21T09:35:08.063Z,99950.38
2018-12-21T09:37:37.122Z,99943.86
2018-12-21T09:40:09.412Z,99940.08
2018-12-21T09:42:38.490Z,99928.53
2018-12-21T09:45:07.474Z,99922.77
2018-12-21T09:47:36.516Z,99907.49
2018-12-21T09:50:07.242Z,99901.50
2018-12-21T09:52:36.212Z,99899.73
2018-12-21T09:55:05.917Z,99895.97
2018-12-21T09:57:34.920Z,99886.52
2018-12-21T10:00:03.993Z,99889.94
2018-12-21T10:02:35.816Z,99877.40
2018-12-21T10:05:04.551Z,99876.25
2018-12-21T10:07:33.520Z,99860.31
2018-12-21T10:10:02.422Z,99845.02
2018-12-21T10:12:31.345Z,99847.42
2018-12-21T10:15:00.319Z,99841.05
2018-12-21T10:17:29.274Z,99835.08
2018-12-21T10:19:58.262Z,99832.27
2018-12-21T10:22:27.200Z,99831.34
2018-12-21T10:24:56.164Z,99821.12
2018-12-21T10:27:25.065Z,99817.26
2018-12-21T10:29:54.005Z,99810.08
2018-12-21T10:32:23.000Z,99803.56
2018-12-21T10:34:51.916Z,99796.02
2018-12-21T10:37:20.899Z,99787.18
2018-12-21T10:39:49.848Z,99776.22
2018-12-21T10:42:18.764Z,99770.72
2018-12-21T10:44:47.792Z,99773.55
2018-12-21T10:47:16.779Z,99762.70
2018-12-21T10:49:45.805Z,99758.27
2018-12-21T10:52:14.772Z,99753.47
2018-12-21T10:54:43.773Z,99744.71
2018-12-21T10:57:12.799Z,99738.34
2018-12-21T10:59:43.507Z,99733.86
2018-12-21T11:02:12.697Z,99723.69
2018-12-21T11:04:41.676Z,99716.70
2018-12-21T11:07:10.649Z,99714.02
2018-12-21T11:09:39.640Z,99701.49
2018-12-21T11:12:08.717Z,99697.82
2018-12-21T11:14:37.686Z,99685.25
2018-12-21T11:17:06.595Z,99682.09
2018-12-21T11:19:35.556Z,99671.41
2018-12-21T11:22:04.545Z,99668.05
2018-12-21T11:24:35.629Z,99661.78
2018-12-21T11:27:04.415Z,99643.17
2018-12-21T11:29:33.433Z,99646.29
2018-12-21T11:32:02.439Z,99636.56
2018-12-21T11:34:31.409Z,99627.75
2018-12-21T11:37:00.446Z,99622.33
2018-12-21T11:39:29.491Z,99609.42
2018-12-21T11:41:58.458Z,99607.08
2018-12-21T11:44:27.405Z,99598.55
2018-12-21T11:46:56.428Z,99589.77
2018-12-21T11:49:25.351Z,99587.61
2018-12-21T11:51:54.247Z,99584.13
2018-12-21T11:54:23.204Z,99577.47
2018-12-21T11:56:52.136Z,99566.50
2018-12-21T11:59:21.108Z,99559.80
2018-12-21T12:01:50.105Z,99559.91
2018-12-21T12:04:19.154Z,99543.67
2018-12-21T12:06:48.136Z,99534.38
2018-12-21T12:09:17.094Z,99512.37
2018-12-21T12:11:46.076Z,99502.59
2018-12-21T12:14:15.096Z,99490.23
2018-12-21T12:16:44.065Z,99482.37
2018-12-21T12:19:13.059Z,99477.09
2018-12-21T12:21:42.034Z,99472.23
2018-12-21T12:24:11.001Z,99466.19
2018-12-21T12:26:44.421Z,99458.77
2018-12-21T12:29:10.895Z,99450.32
2018-12-21T12:31:39.887Z,99434.64
2018-12-21T12:34:08.865Z,99427.99
2018-12-21T12:36:37.755Z,99433.61
2018-12-21T12:39:07.413Z,99431.64
2018-12-21T12:41:36.367Z,99426.81
2018-12-21T12:44:05.362Z,99422.45
2018-12-21T12:46:34.425Z,99411.59
2018-12-21T12:49:03.351Z,99407.61
2018-12-21T12:51:32.358Z,99391.63
2018-12-21T12:54:01.306Z,99394.88
2018-12-21T12:56:30.269Z,99390.22
2018-12-21T12:58:59.383Z,99383.49
2018-12-21T13:01:28.341Z,99375.77
2018-12-21T13:03:57.689Z,99369.64
2018-12-21T13:06:26.649Z,99356.05
2018-12-21T13:08:55.966Z,99352.29
2018-12-21T13:11:24.945Z,99349.31
2018-12-21T13:13:54.408Z,99334.62
2018-12-21T13:16:23.670Z,99329.03
2018-12-21T13:18:52.595Z,99315.60
2018-12-21T13:21:21.588Z,99315.64
2018-12-21T13:23:50.575Z,99307.52
2018-12-21T13:26:19.537Z,99305.69
2018-12-21T13:28:48.639Z,99304.95
2018-12-21T13:31:17.611Z,99290.63
2018-12-21T13:33:46.562Z,99282.45
2018-12-21T13:36:15.518Z,99276.36
2018-12-21T13:38:44.516Z,99268.02
2018-12-21T13:41:13.557Z,99268.88
2018-12-21T13:43:42.530Z,99258.17
2018-12-21T13:46:11.500Z,99253.86
2018-12-21T13:48:40.471Z,99247.45
2018-12-21T13:51:09.652Z,99234.45
2018-12-21T13:53:38.618Z,99234.74
2018-12-21T13:56:07.614Z,99228.39
2018-12-21T13:58:36.602Z,99221.45
2018-12-21T14:01:05.666Z,99221.62
2018-12-21T14:03:34.656Z,99214.95
2018-12-21T14:06:03.675Z,99222.02
2018-12-21T14:08:32.658Z,99218.63
2018-12-21T14:11:01.622Z,99211.48
2018-12-21T14:13:30.582Z,99213.22
2018-12-21T14:15:59.556Z,99207.86
2018-12-21T14:18:28.551Z,99199.67
2018-12-21T14:20:57.497Z,99197.67
2018-12-21T14:23:26.558Z,99191.52
2018-12-21T14:25:55.511Z,99192.81
2018-12-21T14:28:24.489Z,99189.09
2018-12-21T14:30:53.494Z,99181.09
2018-12-21T14:33:22.498Z,99177.40
2018-12-21T14:35:51.448Z,99178.17
2018-12-21T14:38:20.371Z,99168.80
2018-12-21T14:40:49.358Z,99173.34
2018-12-21T14:43:18.365Z,99173.88
2018-12-21T14:45:47.308Z,99168.53
2018-12-21T14:48:16.304Z,99165.64
2018-12-21T14:50:45.304Z,99162.98
2018-12-21T14:53:14.209Z,99157.35
2018-12-21T14:55:43.208Z,99150.95
2018-12-21T14:58:12.155Z,99150.63
2018-12-21T15:00:41.087Z,99150.66
2018-12-21T15:03:10.149Z,99145.81
2018-12-21T15:05:39.305Z,99134.86
2018-12-21T15:08:08.339Z,99136.38
2018-12-21T15:10:37.302Z,99139.92
2018-12-21T15:13:06.253Z,99130.30
2018-12-21T15:15:35.297Z,99127.69
2018-12-21T15:18:04.276Z,99119.60
2018-12-21T15:20:33.224Z,99118.05
2018-12-21T15:23:02.498Z,99116.72
2018-12-21T15:25:31.384Z,99110.83
2018-12-21T15:28:00.400Z,99102.28
2018-12-21T15:30:29.437Z,99100.12
2018-12-21T15:32:58.432Z,99093.72
2018-12-21T15:35:32.753Z,99092.96
2018-12-21T15:38:01.651Z,99096.14
2018-12-21T15:40:30.629Z,99096.35
2018-12-21T15:42:59.634Z,99087.85
2018-12-21T15:45:28.524Z,99084.91
2018-12-21T15:47:57.554Z,99087.03
2018-12-21T15:50:26.520Z,99076.89
2018-12-21T15:52:55.557Z,99086.79
2018-12-21T15:55:24.539Z,99091.63
2018-12-21T15:57:53.540Z,99078.80
2018-12-21T16:00:22.595Z,99088.98
2018-12-21T16:02:54.014Z,99081.22
2018-12-21T16:05:22.989Z,99077.20
2018-12-21T16:07:52.001Z,99070.29
2018-12-21T16:10:20.936Z,99066.54
2018-12-21T16:12:49.940Z,99066.53
2018-12-21T16:15:18.884Z,99071.87
2018-12-21T16:17:47.910Z,99065.73
2018-12-21T16:20:17.099Z,99064.94
2018-12-21T16:22:46.089Z,99067.34
2018-12-21T16:25:18.067Z,99061.48
2018-12-21T16:27:47.061Z,99059.06
2018-12-21T16:30:16.120Z,99055.61
2018-12-21T16:32:45.101Z,99056.94
2018-12-21T16:35:14.045Z,99051.58
2018-12-21T16:37:43.028Z,99045.98
2018-12-21T16:40:12.205Z,99048.66
2018-12-21T16:42:41.408Z,99053.19
2018-12-21T16:45:11.167Z,99050.23
2018-12-21T16:47:40.164Z,99051.34
2018-12-21T16:50:12.038Z,99044.66
2018-12-21T16:52:41.105Z,99051.05
2018-12-21T16:55:10.245Z,99056.41
2018-12-21T16:57:39.214Z,99048.39
2018-12-21T17:00:12.136Z,99047.34
2018-12-21T17:02:41.086Z,99044.94
2018-12-21T17:05:10.119Z,99039.58
2018-12-21T17:07:39.068Z,99040.92
2018-12-21T17:10:14.743Z,99033.16
2018-12-21T17:12:43.705Z,99038.77
2018-12-21T17:15:12.678Z,99031.81
2018-12-21T17:17:41.646Z,99033.41
2018-12-21T17:20:10.984Z,99034.73
2018-12-21T17:22:39.968Z,99032.05
2018-12-21T17:25:11.549Z,99029.39
2018-12-21T17:27:40.535Z,99027.21
2018-12-21T17:30:11.518Z,99024.51
2018-12-21T17:32:40.471Z,99016.97
2018-12-21T17:35:10.154Z,99012.69
2018-12-21T17:37:39.933Z,99019.38
2018-12-21T17:40:11.152Z,99016.16
2018-12-21T17:42:40.173Z,99014.81
2018-12-21T17:45:11.180Z,99006.98
2018-12-21T17:47:40.439Z,99013.94
2018-12-21T17:50:10.642Z,99011.78
2018-12-21T17:52:39.631Z,99003.50
2018-12-21T17:55:09.563Z,99005.87
2018-12-21T17:57:38.538Z,99010.13
2018-12-21T18:00:15.158Z,99017.90
2018-12-21T18:02:45.812Z,99021.88
2018-12-21T18:05:14.858Z,99007.10
2018-12-21T18:07:43.826Z,99011.66
2018-12-21T18:10:13.129Z,99011.41
2018-12-21T18:12:42.109Z,99034.99
2018-12-21T18:15:11.132Z,99021.52
2018-12-21T18:17:40.120Z,99019.38
2018-12-21T18:20:11.306Z,99026.64
2018-12-21T18:22:40.699Z,99024.13
2018-12-21T18:25:13.222Z,99037.27
2018-12-21T18:27:43.367Z,99031.09
2018-12-21T18:30:37.413Z,99030.52
2018-12-21T18:33:10.801Z,99034.55
2018-12-21T18:35:39.187Z,99039.38
2018-12-21T18:38:13.142Z,99045.03
2018-12-21T18:40:42.094Z,99048.83
2018-12-21T18:43:11.146Z,99048.00
2018-12-21T18:45:40.230Z,99052.28
2018-12-21T18:48:09.226Z,99056.31
2018-12-21T18:50:38.219Z,99055.22
2018-12-21T18:53:07.240Z,99054.68
2018-12-21T18:55:36.848Z,99060.61
2018-12-21T18:58:05.791Z,99072.14
2018-12-21T19:00:34.816Z,99074.83
2018-12-21T19:03:03.744Z,99064.34
2018-12-21T19:05:32.860Z,99075.63
2018-12-21T19:08:01.870Z,99064.63
2018-12-21T19:10:30.844Z,99077.22
2018-12-21T19:13:00.218Z,99075.38
2018-12-21T19:15:29.183Z,99075.09
2018-12-21T19:17:58.172Z,99065.73
2018-12-21T19:20:27.347Z,99088.82
2018-12-21T19:22:56.346Z,99096.27
2018-12-21T19:25:25.279Z,99085.04
2018-12-21T19:27:54.278Z,99085.31
2018-12-21T19:30:25.131Z,99084.00
2018-12-21T19:32:54.279Z,99092.88
2018-12-21T19:35:27.435Z,99072.47
2018-12-21T19:37:54.182Z,99083.20
2018-12-21T19:40:23.147Z,99071.44
2018-12-21T19:42:52.093Z,99075.19
2018-12-21T19:45:21.115Z,99081.64
2018-12-21T19:47:50.097Z,99078.91
2018-12-21T19:50:19.060Z,99076.00
2018-12-21T19:52:47.975Z,99088.87
2018-12-21T19:55:28.054Z,99082.97
2018-12-21T19:57:56.987Z,99082.73
2018-12-21T20:00:25.909Z,99081.90
2018-12-21T20:02:55.129Z,99102.84
2018-12-21T20:05:24.150Z,99091.30
2018-12-21T20:07:53.158Z,99089.97
2018-12-21T20:10:22.152Z,99089.95
2018-12-21T20:12:51.157Z,99079.54
2018-12-21T20:15:20.126Z,99085.16
2018-12-21T20:17:49.136Z,99091.87
2018-12-21T20:20:18.182Z,99086.49
2018-12-21T20:22:47.108Z,99101.00
2018-12-21T20:25:16.081Z,99102.33
2018-12-21T20:27:45.067Z,99106.08
2018-12-21T20:30:17.040Z,99096.47
2018-12-21T20:32:46.139Z,99102.61
2018-12-21T20:35:15.565Z,99102.86
2018-12-21T20:37:44.556Z,99108.52
2018-12-21T20:40:13.719Z,99099.12
2018-12-21T20:42:42.766Z,99092.69
2018-12-21T20:45:12.297Z,99101.02
2018-12-21T20:47:41.288Z,99113.62
2018-12-21T20:50:14.034Z,99120.59
2018-12-21T20:52:43.049Z,99128.63
2018-12-21T20:55:12.076Z,99130.23
2018-12-21T20:57:42.394Z,99147.41
2018-12-21T21:00:14.114Z,99143.64
2018-12-21T21:02:43.197Z,99163.23
2018-12-21T21:05:12.319Z,99145.28
2018-12-21T21:07:42.552Z,99160.28
2018-12-21T21:10:12.685Z,99162.42
2018-12-21T21:12:42.032Z,99177.72
2018-12-21T21:15:12.474Z,99179.33
2018-12-21T21:17:41.416Z,99203.72
2018-12-21T21:20:12.691Z,99180.12
2018-12-21T21:22:41.734Z,99214.20
2018-12-21T21:25:10.771Z,99225.70
2018-12-21T21:27:39.707Z,99240.75
2018-12-21T21:30:12.377Z,99229.73
2018-12-21T21:32:41.330Z,99243.66
2018-12-21T21:35:10.410Z,99243.41
2018-12-21T21:37:39.503Z,99246.09
2018-12-21T21:40:12.552Z,99254.39
2018-12-21T21:42:41.533Z,99266.45
2018-12-21T21:45:10.844Z,99282.80
2018-12-21T21:47:40.248Z,99269.13
2018-12-21T21:50:09.402Z,99286.80
2018-12-21T21:52:38.387Z,99283.86
2018-12-21T21:55:07.804Z,99302.88
2018-12-21T21:57:39.663Z,99290.25
2018-12-21T22:00:11.322Z,99322.95
2018-12-21T22:02:40.465Z,99305.55
2018-12-21T22:05:09.470Z,99308.75
2018-12-21T22:07:38.980Z,99321.61
2018-12-21T22:10:10.435Z,99336.09
2018-12-21T22:12:39.501Z,99339.28
2018-12-21T22:15:09.825Z,99338.20
2018-12-21T22:17:38.814Z,99344.13
2018-12-21T22:20:11.155Z,99351.08
2018-12-21T22:22:40.173Z,99347.58
2018-12-21T22:25:09.197Z,99352.69
2018-12-21T22:27:48.095Z,99355.10
2018-12-21T22:30:15.878Z,99366.58
2018-12-21T22:32:44.918Z,99363.63
2018-12-21T22:35:14.293Z,99373.83
2018-12-21T22:37:43.264Z,99369.81
2018-12-21T22:40:12.274Z,99384.56
2018-12-21T22:42:41.312Z,99381.06
2018-12-21T22:45:10.344Z,99388.59
2018-12-21T22:47:39.509Z,99404.92
2018-12-21T22:50:09.210Z,99406.47
2018-12-21T22:52:38.388Z,99407.81
2018-12-21T22:55:08.549Z,99406.22
2018-12-21T22:57:37.615Z,99417.22
2018-12-21T23:00:18.019Z,99419.57
2018-12-21T23:02:47.035Z,99449.05
2018-12-21T23:05:16.172Z,99447.70
2018-12-21T23:07:45.154Z,99450.11
2018-12-21T23:10:14.137Z,99457.59
2018-12-21T23:12:45.268Z,99461.84
2018-12-21T23:15:14.324Z,99468.29
2018-12-21T23:17:43.365Z,99473.88
2018-12-21T23:20:12.328Z,99484.88
2018-12-21T23:22:44.242Z,99488.31
2018-12-21T23:25:13.584Z,99498.75
2018-12-21T23:27:47.273Z,99497.18
2018-12-21T23:30:21.069Z,99509.80
2018-12-21T23:32:50.638Z,99503.31
2018-12-21T23:35:22.536Z,99508.61
2018-12-21T23:37:51.505Z,99516.39
2018-12-21T23:40:20.557Z,99527.67
2018-12-21T23:42:49.548Z,99520.89
2018-12-21T23:45:18.543Z,99539.69
2018-12-21T23:47:47.578Z,99534.34
2018-12-21T23:50:16.560Z,99552.99
2018-12-21T23:52:45.709Z,99543.34
2018-12-21T23:55:14.678Z,99559.03
2018-12-21T23:57:43.681Z,99588.73
